createdAt,value
2023-01-18T00:00:42.552Z,938.05
2023-01-18T00:01:42.492Z,938.05
2023-01-18T00:02:42.406Z,938.03
2023-01-18T00:03:42.453Z,938.06
2023-01-18T00:04:42.309Z,938.02
2023-01-18T00:05:42.236Z,938.04
2023-01-18T00:06:42.145Z,938.01
2023-01-18T00:07:42.091Z,938.00
2023-01-18T00:08:42.072Z,937.99
2023-01-18T00:09:41.987Z,937.98
2023-01-18T00:10:41.920Z,938.00
2023-01-18T00:11:41.851Z,938.00
2023-01-18T00:12:41.796Z,938.00
2023-01-18T00:13:41.754Z,937.97
2023-01-18T00:14:41.710Z,938.01
2023-01-18T00:15:41.615Z,937.99
2023-01-18T00:16:41.574Z,937.98
2023-01-18T00:17:41.512Z,937.99
2023-01-18T00:18:41.448Z,938.01
2023-01-18T00:19:41.364Z,937.98
2023-01-18T00:20:41.302Z,937.99
2023-01-18T00:21:41.246Z,938.03
2023-01-18T00:22:41.212Z,938.01
2023-01-18T00:23:41.127Z,938.01
2023-01-18T00:24:41.062Z,938.00
2023-01-18T00:25:40.999Z,938.05
2023-01-18T00:26:40.930Z,938.02
2023-01-18T00:27:40.900Z,938.02
2023-01-18T00:28:40.821Z,938.02
2023-01-18T00:29:40.762Z,938.01
2023-01-18T00:30:40.733Z,938.03
2023-01-18T00:31:40.659Z,938.00
2023-01-18T00:32:40.607Z,938.03
2023-01-18T00:33:40.513Z,938.02
2023-01-18T00:34:40.474Z,937.96
2023-01-18T00:35:40.415Z,937.98
2023-01-18T00:36:40.321Z,937.98
2023-01-18T00:37:40.278Z,937.98
2023-01-18T00:38:40.223Z,937.97
2023-01-18T00:39:40.171Z,937.94
2023-01-18T00:40:40.079Z,937.95
2023-01-18T00:41:40.020Z,937.95
2023-01-18T00:42:39.964Z,937.94
2023-01-18T00:43:40.106Z,937.93
2023-01-18T00:44:39.872Z,937.91
2023-01-18T00:45:39.813Z,937.88
2023-01-18T00:46:39.725Z,937.87
2023-01-18T00:47:39.656Z,937.87
2023-01-18T00:48:39.593Z,937.86
2023-01-18T00:49:39.540Z,937.84
2023-01-18T00:50:39.506Z,937.85
2023-01-18T00:51:39.412Z,937.85
2023-01-18T00:52:39.354Z,937.86
2023-01-18T00:53:39.341Z,937.86
2023-01-18T00:54:39.219Z,937.89
2023-01-18T00:55:39.194Z,937.89
2023-01-18T00:56:39.107Z,937.88
2023-01-18T00:57:39.044Z,937.90
2023-01-18T00:58:38.962Z,937.89
2023-01-18T00:59:38.927Z,937.93
2023-01-18T01:00:38.883Z,937.91
2023-01-18T01:01:38.843Z,937.89
2023-01-18T01:02:38.778Z,937.90
2023-01-18T01:03:38.668Z,937.94
2023-01-18T01:04:38.616Z,937.92
2023-01-18T01:05:38.584Z,937.93
2023-01-18T01:06:38.485Z,937.95
2023-01-18T01:07:38.425Z,937.91
2023-01-18T01:08:38.371Z,937.95
2023-01-18T01:09:38.298Z,937.93
2023-01-18T01:10:38.246Z,937.95
2023-01-18T01:11:38.228Z,937.91
2023-01-18T01:12:38.120Z,937.92
2023-01-18T01:13:38.061Z,937.93
2023-01-18T01:14:38.000Z,937.92
2023-01-18T01:15:37.961Z,937.90
2023-01-18T01:16:37.933Z,937.89
2023-01-18T01:17:37.841Z,937.89
2023-01-18T01:18:37.772Z,937.90
2023-01-18T01:19:37.681Z,937.94
2023-01-18T01:20:37.634Z,937.92
2023-01-18T01:21:37.573Z,937.96
2023-01-18T01:22:37.510Z,937.94
2023-01-18T01:23:37.485Z,937.95
2023-01-18T01:24:37.370Z,937.98
2023-01-18T01:25:37.332Z,937.95
2023-01-18T01:26:37.262Z,937.97
2023-01-18T01:27:37.201Z,937.99
2023-01-18T01:28:37.172Z,937.98
2023-01-18T01:29:37.076Z,938.01
2023-01-18T01:30:37.129Z,938.00
2023-01-18T01:31:36.963Z,937.99
2023-01-18T01:32:36.884Z,937.99
2023-01-18T01:33:36.872Z,937.99
2023-01-18T01:34:36.771Z,938.01
2023-01-18T01:35:36.710Z,938.00
2023-01-18T01:36:36.650Z,938.00
2023-01-18T01:37:36.590Z,938.01
2023-01-18T01:38:36.542Z,938.00
2023-01-18T01:39:36.495Z,938.01
2023-01-18T01:40:36.421Z,938.00
2023-01-18T01:41:36.351Z,937.99
2023-01-18T01:42:36.293Z,938.00
2023-01-18T01:43:36.259Z,938.01
2023-01-18T01:44:36.174Z,937.97
2023-01-18T01:45:36.132Z,937.96
2023-01-18T01:46:36.048Z,938.02
2023-01-18T01:47:35.986Z,937.99
2023-01-18T01:48:35.924Z,937.98
2023-01-18T01:49:35.891Z,938.07
2023-01-18T01:50:35.803Z,938.05
2023-01-18T01:51:35.763Z,938.09
2023-01-18T01:52:35.718Z,938.07
2023-01-18T01:53:35.604Z,938.12
2023-01-18T01:54:35.555Z,938.09
2023-01-18T01:55:35.499Z,938.12
2023-01-18T01:56:35.453Z,938.15
2023-01-18T01:57:35.374Z,938.14
2023-01-18T01:58:35.313Z,938.14
2023-01-18T01:59:35.253Z,938.13
2023-01-18T02:00:35.172Z,938.15
2023-01-18T02:01:35.268Z,938.15
2023-01-18T02:02:35.092Z,938.18
2023-01-18T02:03:34.986Z,938.23
2023-01-18T02:04:34.978Z,938.20
2023-01-18T02:05:34.889Z,938.24
2023-01-18T02:06:34.820Z,938.26
2023-01-18T02:07:34.750Z,938.26
2023-01-18T02:08:34.719Z,938.29
2023-01-18T02:09:34.631Z,938.28
2023-01-18T02:10:34.572Z,938.34
2023-01-18T02:11:34.516Z,938.33
2023-01-18T02:12:34.452Z,938.29
2023-01-18T02:13:34.406Z,938.35
2023-01-18T02:14:34.335Z,938.36
2023-01-18T02:15:34.289Z,938.36
2023-01-18T02:16:34.238Z,938.35
2023-01-18T02:17:34.170Z,938.36
2023-01-18T02:18:34.092Z,938.36
2023-01-18T02:19:34.054Z,938.36
2023-01-18T02:20:33.959Z,938.32
2023-01-18T02:21:33.920Z,938.37
2023-01-18T02:22:33.871Z,938.37
2023-01-18T02:23:33.785Z,938.38
2023-01-18T02:24:33.720Z,938.37
2023-01-18T02:25:33.655Z,938.37
2023-01-18T02:26:33.593Z,938.38
2023-01-18T02:27:33.561Z,938.37
2023-01-18T02:28:33.473Z,938.38
2023-01-18T02:29:33.438Z,938.38
2023-01-18T02:30:33.457Z,938.36
2023-01-18T02:31:33.270Z,938.37
2023-01-18T02:32:33.231Z,938.36
2023-01-18T02:33:33.171Z,938.40
2023-01-18T02:34:33.130Z,938.36
2023-01-18T02:35:33.039Z,938.39
2023-01-18T02:36:32.980Z,938.36
2023-01-18T02:37:32.925Z,938.36
2023-01-18T02:38:32.892Z,938.35
2023-01-18T02:39:32.771Z,938.36
2023-01-18T02:40:32.756Z,938.36
2023-01-18T02:41:32.673Z,938.38
2023-01-18T02:42:32.614Z,938.40
2023-01-18T02:43:32.581Z,938.41
2023-01-18T02:44:32.493Z,938.39
2023-01-18T02:45:35.571Z,938.42
2023-01-18T02:46:32.376Z,938.39
2023-01-18T02:47:32.313Z,938.41
2023-01-18T02:48:32.236Z,938.42
2023-01-18T02:49:32.230Z,938.37
2023-01-18T02:50:32.135Z,938.42
2023-01-18T02:51:32.068Z,938.42
2023-01-18T02:52:32.009Z,938.40
2023-01-18T02:53:31.945Z,938.46
2023-01-18T02:54:31.913Z,938.48
2023-01-18T02:55:31.855Z,938.48
2023-01-18T02:56:31.740Z,938.48
2023-01-18T02:57:31.716Z,938.48
2023-01-18T02:58:31.656Z,938.46
2023-01-18T02:59:31.604Z,938.45
2023-01-18T03:00:31.521Z,938.47
2023-01-18T03:01:31.501Z,938.46
2023-01-18T03:02:31.418Z,938.48
2023-01-18T03:03:31.333Z,938.48
2023-01-18T03:04:31.293Z,938.51
2023-01-18T03:05:31.228Z,938.52
2023-01-18T03:06:31.150Z,938.51
2023-01-18T03:07:31.082Z,938.54
2023-01-18T03:08:31.052Z,938.53
2023-01-18T03:09:30.973Z,938.58
2023-01-18T03:10:30.910Z,938.57
2023-01-18T03:11:30.872Z,938.54
2023-01-18T03:12:30.799Z,938.54
2023-01-18T03:13:30.720Z,938.58
2023-01-18T03:14:30.692Z,938.56
2023-01-18T03:15:30.622Z,938.56
2023-01-18T03:16:30.533Z,938.54
2023-01-18T03:17:30.469Z,938.58
2023-01-18T03:18:30.410Z,938.63
2023-01-18T03:19:30.384Z,938.61
2023-01-18T03:20:30.283Z,938.66
2023-01-18T03:21:30.230Z,938.64
2023-01-18T03:22:30.163Z,938.67
2023-01-18T03:23:30.142Z,938.65
2023-01-18T03:24:30.033Z,938.65
2023-01-18T03:25:29.997Z,938.65
2023-01-18T03:26:29.964Z,938.66
2023-01-18T03:27:29.894Z,938.69
2023-01-18T03:28:29.786Z,938.71
2023-01-18T03:29:29.773Z,938.69
2023-01-18T03:30:29.693Z,938.73
2023-01-18T03:31:29.624Z,938.73
2023-01-18T03:32:29.559Z,938.74
2023-01-18T03:33:29.497Z,938.76
2023-01-18T03:34:29.433Z,938.79
2023-01-18T03:35:29.403Z,938.83
2023-01-18T03:36:29.295Z,938.77
2023-01-18T03:37:29.240Z,938.78
2023-01-18T03:38:29.211Z,938.82
2023-01-18T03:39:29.131Z,938.82
2023-01-18T03:40:29.072Z,938.80
2023-01-18T03:41:29.013Z,938.84
2023-01-18T03:42:28.951Z,938.85
2023-01-18T03:43:28.911Z,938.84
2023-01-18T03:44:28.804Z,938.80
2023-01-18T03:45:28.792Z,938.84
2023-01-18T03:46:28.712Z,938.88
2023-01-18T03:47:28.661Z,938.90
2023-01-18T03:48:28.573Z,938.88
2023-01-18T03:49:28.535Z,938.90
2023-01-18T03:50:28.462Z,938.92
2023-01-18T03:51:28.406Z,938.90
2023-01-18T03:52:28.309Z,938.92
2023-01-18T03:53:28.270Z,938.94
2023-01-18T03:54:28.231Z,938.93
2023-01-18T03:55:28.171Z,938.91
2023-01-18T03:56:28.088Z,938.95
2023-01-18T03:57:28.026Z,938.94
2023-01-18T03:58:27.960Z,938.94
2023-01-18T03:59:27.899Z,938.99
2023-01-18T04:00:27.863Z,939.02
2023-01-18T04:01:27.899Z,939.01
2023-01-18T04:02:27.733Z,938.99
2023-01-18T04:03:27.654Z,939.03
2023-01-18T04:04:27.590Z,939.06
2023-01-18T04:05:27.553Z,939.10
2023-01-18T04:06:27.463Z,939.09
2023-01-18T04:07:27.442Z,939.10
2023-01-18T04:08:27.358Z,939.13
2023-01-18T04:09:27.303Z,939.15
2023-01-18T04:10:27.244Z,939.15
2023-01-18T04:11:27.183Z,939.14
2023-01-18T04:12:27.158Z,939.17
2023-01-18T04:13:27.054Z,939.19
2023-01-18T04:14:27.066Z,939.20
2023-01-18T04:15:26.937Z,939.21
2023-01-18T04:16:26.851Z,939.27
2023-01-18T04:17:26.833Z,939.23
2023-01-18T04:18:26.750Z,939.24
2023-01-18T04:19:26.683Z,939.25
2023-01-18T04:20:26.625Z,939.27
2023-01-18T04:21:26.582Z,939.28
2023-01-18T04:22:26.511Z,939.30
2023-01-18T04:23:26.474Z,939.31
2023-01-18T04:24:26.387Z,939.33
2023-01-18T04:25:26.346Z,939.35
2023-01-18T04:26:26.273Z,939.34
2023-01-18T04:27:26.205Z,939.35
2023-01-18T04:28:26.137Z,939.34
2023-01-18T04:29:26.072Z,939.34
2023-01-18T04:30:26.012Z,939.33
2023-01-18T04:31:25.999Z,939.35
2023-01-18T04:32:25.915Z,939.33
2023-01-18T04:33:25.821Z,939.37
2023-01-18T04:34:25.770Z,939.37
2023-01-18T04:35:25.722Z,939.36
2023-01-18T04:36:25.650Z,939.41
2023-01-18T04:37:25.612Z,939.42
2023-01-18T04:38:25.511Z,939.38
2023-01-18T04:39:25.463Z,939.38
2023-01-18T04:40:25.393Z,939.39
2023-01-18T04:41:25.371Z,939.39
2023-01-18T04:42:25.273Z,939.39
2023-01-18T04:43:25.213Z,939.39
2023-01-18T04:44:25.215Z,939.44
2023-01-18T04:45:25.105Z,939.42
2023-01-18T04:46:25.054Z,939.44
2023-01-18T04:47:24.956Z,939.46
2023-01-18T04:48:24.915Z,939.44
2023-01-18T04:49:24.845Z,939.49
2023-01-18T04:50:24.828Z,939.43
2023-01-18T04:51:24.721Z,939.45
2023-01-18T04:52:24.668Z,939.47
2023-01-18T04:53:24.604Z,939.50
2023-01-18T04:54:24.532Z,939.50
2023-01-18T04:55:24.473Z,939.49
2023-01-18T04:56:24.452Z,939.54
2023-01-18T04:57:24.386Z,939.53
2023-01-18T04:58:24.284Z,939.57
2023-01-18T04:59:24.236Z,939.57
2023-01-18T05:00:24.211Z,939.60
2023-01-18T05:01:24.288Z,939.63
2023-01-18T05:02:24.095Z,939.61
2023-01-18T05:03:23.996Z,939.64
2023-01-18T05:04:23.923Z,939.67
2023-01-18T05:05:24.057Z,939.66
2023-01-18T05:06:23.810Z,939.67
2023-01-18T05:07:23.782Z,939.71
2023-01-18T05:08:23.690Z,939.75
2023-01-18T05:09:23.635Z,939.76
2023-01-18T05:10:23.584Z,939.74
2023-01-18T05:11:23.515Z,939.78
2023-01-18T05:12:23.452Z,939.74
2023-01-18T05:13:23.413Z,939.77
2023-01-18T05:14:23.295Z,939.76
2023-01-18T05:15:23.271Z,939.76
2023-01-18T05:16:23.247Z,939.77
2023-01-18T05:17:23.141Z,939.73
2023-01-18T05:18:23.074Z,939.76
2023-01-18T05:19:23.055Z,939.77
2023-01-18T05:20:22.950Z,939.76
2023-01-18T05:21:22.892Z,939.79
2023-01-18T05:22:22.826Z,939.78
2023-01-18T05:23:22.762Z,939.82
2023-01-18T05:24:22.740Z,939.83
2023-01-18T05:25:22.646Z,939.84
2023-01-18T05:26:22.575Z,939.86
2023-01-18T05:27:22.503Z,939.88
2023-01-18T05:28:22.452Z,939.91
2023-01-18T05:29:22.412Z,939.92
2023-01-18T05:30:22.383Z,939.95
2023-01-18T05:31:22.330Z,939.93
2023-01-18T05:32:22.211Z,939.95
2023-01-18T05:33:22.151Z,939.97
2023-01-18T05:34:22.080Z,939.96
2023-01-18T05:35:22.042Z,939.97
2023-01-18T05:36:21.998Z,939.99
2023-01-18T05:37:21.925Z,940.02
2023-01-18T05:38:21.848Z,940.04
2023-01-18T05:39:21.783Z,940.04
2023-01-18T05:40:21.771Z,940.08
2023-01-18T05:41:21.689Z,940.09
2023-01-18T05:42:21.612Z,940.07
2023-01-18T05:43:21.528Z,940.09
2023-01-18T05:44:21.503Z,940.11
2023-01-18T05:45:21.438Z,940.13
2023-01-18T05:46:21.373Z,940.10
2023-01-18T05:47:21.333Z,940.15
2023-01-18T05:48:21.272Z,940.20
2023-01-18T05:49:21.181Z,940.21
2023-01-18T05:50:21.115Z,940.20
2023-01-18T05:51:21.180Z,940.21
2023-01-18T05:52:21.018Z,940.23
2023-01-18T05:53:20.919Z,940.27
2023-01-18T05:54:20.873Z,940.26
2023-01-18T05:55:20.826Z,940.30
2023-01-18T05:56:20.755Z,940.31
2023-01-18T05:57:20.688Z,940.32
2023-01-18T05:58:20.632Z,940.30
2023-01-18T05:59:20.569Z,940.31
2023-01-18T06:00:20.523Z,940.32
2023-01-18T06:01:20.571Z,940.35
2023-01-18T06:02:20.402Z,940.33
2023-01-18T06:03:20.296Z,940.31
2023-01-18T06:04:20.305Z,940.33
2023-01-18T06:05:20.198Z,940.34
2023-01-18T06:06:20.170Z,940.38
2023-01-18T06:07:20.073Z,940.40
2023-01-18T06:08:20.015Z,940.41
2023-01-18T06:09:19.961Z,940.42
2023-01-18T06:10:19.941Z,940.44
2023-01-18T06:11:19.876Z,940.43
2023-01-18T06:12:19.783Z,940.43
2023-01-18T06:13:19.746Z,940.48
2023-01-18T06:14:19.671Z,940.50
2023-01-18T06:15:19.590Z,940.51
2023-01-18T06:16:19.548Z,940.50
2023-01-18T06:17:19.467Z,940.51
2023-01-18T06:18:19.432Z,940.53
2023-01-18T06:19:19.342Z,940.57
2023-01-18T06:20:19.319Z,940.57
2023-01-18T06:21:19.216Z,940.57
2023-01-18T06:22:19.169Z,940.55
2023-01-18T06:23:19.081Z,940.60
2023-01-18T06:24:19.022Z,940.58
2023-01-18T06:25:18.997Z,940.62
2023-01-18T06:26:18.950Z,940.64
2023-01-18T06:27:18.846Z,940.64
2023-01-18T06:28:18.796Z,940.62
2023-01-18T06:29:18.740Z,940.63
2023-01-18T06:30:18.688Z,940.66
2023-01-18T06:31:18.659Z,940.66
2023-01-18T06:32:18.551Z,940.66
2023-01-18T06:33:18.503Z,940.69
2023-01-18T06:34:18.433Z,940.71
2023-01-18T06:35:18.389Z,940.69
2023-01-18T06:36:18.311Z,940.72
2023-01-18T06:37:18.241Z,940.70
2023-01-18T06:38:18.245Z,940.75
2023-01-18T06:39:18.115Z,940.77
2023-01-18T06:40:18.075Z,940.79
2023-01-18T06:41:18.045Z,940.78
2023-01-18T06:42:17.956Z,940.81
2023-01-18T06:43:17.880Z,940.80
2023-01-18T06:44:17.801Z,940.82
2023-01-18T06:45:17.769Z,940.81
2023-01-18T06:46:17.746Z,940.82
2023-01-18T06:47:17.641Z,940.86
2023-01-18T06:48:17.576Z,940.88
2023-01-18T06:49:17.535Z,940.89
2023-01-18T06:50:17.467Z,940.91
2023-01-18T06:51:17.423Z,940.89
2023-01-18T06:52:17.315Z,940.91
2023-01-18T06:53:17.292Z,940.90
2023-01-18T06:54:17.222Z,940.94
2023-01-18T06:55:17.163Z,940.92
2023-01-18T06:56:17.131Z,940.96
2023-01-18T06:57:17.019Z,940.96
2023-01-18T06:58:16.974Z,941.01
2023-01-18T06:59:16.915Z,940.97
2023-01-18T07:00:16.860Z,941.00
2023-01-18T07:01:16.925Z,941.06
2023-01-18T07:02:16.727Z,941.01
2023-01-18T07:03:16.676Z,941.02
2023-01-18T07:04:16.640Z,941.03
2023-01-18T07:05:16.562Z,941.09
2023-01-18T07:06:16.471Z,941.09
2023-01-18T07:07:16.451Z,941.08
2023-01-18T07:08:16.347Z,941.15
2023-01-18T07:09:16.307Z,941.17
2023-01-18T07:10:16.867Z,941.20
2023-01-18T07:11:16.177Z,941.22
2023-01-18T07:12:16.119Z,941.21
2023-01-18T07:13:16.037Z,941.23
2023-01-18T07:14:16.013Z,941.24
2023-01-18T07:15:21.473Z,941.26
2023-01-18T07:16:15.878Z,941.30
2023-01-18T07:17:15.773Z,941.30
2023-01-18T07:18:15.755Z,941.30
2023-01-18T07:19:15.717Z,941.34
2023-01-18T07:20:15.637Z,941.34
2023-01-18T07:21:15.603Z,941.38
2023-01-18T07:22:15.496Z,941.38
2023-01-18T07:23:15.434Z,941.41
2023-01-18T07:24:15.393Z,941.42
2023-01-18T07:25:15.340Z,941.42
2023-01-18T07:26:15.251Z,941.44
2023-01-18T07:27:15.222Z,941.47
2023-01-18T07:28:15.156Z,941.47
2023-01-18T07:29:15.077Z,941.49
2023-01-18T07:30:15.053Z,941.49
2023-01-18T07:31:14.987Z,941.51
2023-01-18T07:32:14.861Z,941.56
2023-01-18T07:33:14.836Z,941.50
2023-01-18T07:34:14.753Z,941.53
2023-01-18T07:35:14.738Z,941.54
2023-01-18T07:36:14.665Z,941.55
2023-01-18T07:37:14.597Z,941.56
2023-01-18T07:38:14.522Z,941.54
2023-01-18T07:39:14.511Z,941.55
2023-01-18T07:40:14.421Z,941.56
2023-01-18T07:41:14.363Z,941.58
2023-01-18T07:42:14.280Z,941.58
2023-01-18T07:43:14.256Z,941.59
2023-01-18T07:44:14.169Z,941.62
2023-01-18T07:45:14.139Z,941.62
2023-01-18T07:46:14.068Z,941.59
2023-01-18T07:47:14.008Z,941.63
2023-01-18T07:48:13.925Z,941.65
2023-01-18T07:49:13.869Z,941.67
2023-01-18T07:50:13.817Z,941.70
2023-01-18T07:51:13.746Z,941.71
2023-01-18T07:52:13.705Z,941.72
2023-01-18T07:53:13.696Z,941.74
2023-01-18T07:54:13.563Z,941.75
2023-01-18T07:55:13.498Z,941.77
2023-01-18T07:56:13.513Z,941.77
2023-01-18T07:57:13.376Z,941.79
2023-01-18T07:58:13.327Z,941.80
2023-01-18T07:59:13.250Z,941.84
2023-01-18T08:00:13.221Z,941.84
2023-01-18T08:01:13.303Z,941.87
2023-01-18T08:02:13.074Z,941.91
2023-01-18T08:03:13.098Z,941.95
2023-01-18T08:04:12.938Z,941.92
2023-01-18T08:05:12.901Z,941.96
2023-01-18T08:06:12.826Z,941.96
2023-01-18T08:07:12.751Z,941.97
2023-01-18T08:08:12.734Z,942.00
2023-01-18T08:09:12.646Z,942.03
2023-01-18T08:10:12.599Z,942.03
2023-01-18T08:11:12.556Z,942.07
2023-01-18T08:12:12.440Z,942.05
2023-01-18T08:13:12.380Z,942.07
2023-01-18T08:14:12.333Z,942.09
2023-01-18T08:15:12.282Z,942.12
2023-01-18T08:16:12.353Z,942.11
2023-01-18T08:17:12.142Z,942.15
2023-01-18T08:18:12.091Z,942.18
2023-01-18T08:19:12.036Z,942.20
2023-01-18T08:20:11.982Z,942.19
2023-01-18T08:21:11.954Z,942.22
2023-01-18T08:22:11.881Z,942.23
2023-01-18T08:23:11.796Z,942.23
2023-01-18T08:24:11.730Z,942.23
2023-01-18T08:25:11.721Z,942.28
2023-01-18T08:26:11.632Z,942.28
2023-01-18T08:27:11.547Z,942.25
2023-01-18T08:28:11.542Z,942.27
2023-01-18T08:29:11.434Z,942.27
2023-01-18T08:30:11.370Z,942.29
2023-01-18T08:31:11.366Z,942.29
2023-01-18T08:32:11.253Z,942.28
2023-01-18T08:33:11.175Z,942.27
2023-01-18T08:34:11.129Z,942.32
2023-01-18T08:35:11.067Z,942.34
2023-01-18T08:36:10.984Z,942.35
2023-01-18T08:37:10.964Z,942.39
2023-01-18T08:38:10.894Z,942.38
2023-01-18T08:39:10.813Z,942.42
2023-01-18T08:40:10.759Z,942.45
2023-01-18T08:41:10.692Z,942.42
2023-01-18T08:42:10.638Z,942.49
2023-01-18T08:43:10.586Z,942.48
2023-01-18T08:44:10.529Z,942.49
2023-01-18T08:45:10.471Z,942.51
2023-01-18T08:46:10.409Z,942.54
2023-01-18T08:47:10.331Z,942.55
2023-01-18T08:48:10.283Z,942.62
2023-01-18T08:49:10.211Z,942.63
2023-01-18T08:50:10.835Z,942.66
2023-01-18T08:51:10.086Z,942.68
2023-01-18T08:52:10.036Z,942.69
2023-01-18T08:53:09.993Z,942.70
2023-01-18T08:54:09.909Z,942.76
2023-01-18T08:55:09.855Z,942.73
2023-01-18T08:56:09.785Z,942.76
2023-01-18T08:57:09.721Z,942.75
2023-01-18T08:58:09.682Z,942.79
2023-01-18T08:59:09.657Z,942.82
2023-01-18T09:00:09.542Z,942.81
2023-01-18T09:01:09.526Z,942.86
2023-01-18T09:02:09.453Z,942.83
2023-01-18T09:03:09.413Z,942.84
2023-01-18T09:04:09.307Z,942.87
2023-01-18T09:05:09.232Z,942.89
2023-01-18T09:06:11.671Z,942.92
2023-01-18T09:07:09.113Z,942.98
2023-01-18T09:08:09.031Z,942.96
2023-01-18T09:09:09.004Z,942.96
2023-01-18T09:10:08.948Z,942.99
2023-01-18T09:11:08.883Z,943.01
2023-01-18T09:12:08.801Z,943.01
2023-01-18T09:13:08.760Z,943.04
2023-01-18T09:14:08.708Z,943.02
2023-01-18T09:15:08.632Z,943.07
2023-01-18T09:16:08.581Z,943.11
2023-01-18T09:17:08.523Z,943.10
2023-01-18T09:18:08.462Z,943.13
2023-01-18T09:19:08.411Z,943.13
2023-01-18T09:20:08.360Z,943.20
2023-01-18T09:21:08.261Z,943.19
2023-01-18T09:22:08.212Z,943.20
2023-01-18T09:23:08.160Z,943.24
2023-01-18T09:24:08.102Z,943.24
2023-01-18T09:25:08.023Z,943.26
2023-01-18T09:26:07.972Z,943.25
2023-01-18T09:27:07.899Z,943.32
2023-01-18T09:28:07.833Z,943.34
2023-01-18T09:29:07.774Z,943.34
2023-01-18T09:30:07.730Z,943.36
2023-01-18T09:31:07.708Z,943.36
2023-01-18T09:32:07.582Z,943.43
2023-01-18T09:33:07.574Z,943.42
2023-01-18T09:34:18.786Z,943.44
2023-01-18T09:35:07.433Z,943.48
2023-01-18T09:36:07.372Z,943.49
2023-01-18T09:37:07.316Z,943.52
2023-01-18T09:38:07.271Z,943.51
2023-01-18T09:39:07.191Z,943.55
2023-01-18T09:40:07.124Z,943.52
2023-01-18T09:41:07.055Z,943.55
2023-01-18T09:42:07.026Z,943.58
2023-01-18T09:43:06.954Z,943.61
2023-01-18T09:44:06.915Z,943.60
2023-01-18T09:45:06.830Z,943.61
2023-01-18T09:46:06.752Z,943.61
2023-01-18T09:47:06.705Z,943.65
2023-01-18T09:48:06.674Z,943.65
2023-01-18T09:49:06.608Z,943.72
2023-01-18T09:50:06.532Z,943.67
2023-01-18T09:51:06.447Z,943.75
2023-01-18T09:52:06.404Z,943.77
2023-01-18T09:53:07.312Z,943.80
2023-01-18T09:54:06.262Z,943.76
2023-01-18T09:55:06.226Z,943.78
2023-01-18T09:56:06.158Z,943.82
2023-01-18T09:57:06.102Z,943.81
2023-01-18T09:58:06.037Z,943.81
2023-01-18T09:59:05.986Z,943.83
2023-01-18T10:00:05.965Z,943.83
2023-01-18T10:01:05.925Z,943.83
2023-01-18T10:02:05.893Z,943.84
2023-01-18T10:03:05.758Z,943.82
2023-01-18T10:04:05.712Z,943.88
2023-01-18T10:05:05.644Z,943.85
2023-01-18T10:06:05.557Z,943.89
2023-01-18T10:07:05.496Z,943.90
2023-01-18T10:08:05.443Z,943.89
2023-01-18T10:09:05.379Z,943.90
2023-01-18T10:10:05.322Z,943.90
2023-01-18T10:11:05.249Z,943.92
2023-01-18T10:12:05.206Z,943.96
2023-01-18T10:13:05.147Z,943.94
2023-01-18T10:14:05.140Z,943.95
2023-01-18T10:15:05.023Z,943.97
2023-01-18T10:16:04.972Z,943.95
2023-01-18T10:17:04.905Z,943.95
2023-01-18T10:18:04.832Z,943.99
2023-01-18T10:19:04.796Z,943.96
2023-01-18T10:20:04.731Z,943.95
2023-01-18T10:21:04.686Z,943.95
2023-01-18T10:22:04.626Z,943.96
2023-01-18T10:23:04.545Z,943.99
2023-01-18T10:24:04.460Z,943.96
2023-01-18T10:25:04.444Z,943.92
2023-01-18T10:26:04.379Z,943.95
2023-01-18T10:27:04.326Z,943.98
2023-01-18T10:28:04.241Z,943.95
2023-01-18T10:29:04.192Z,943.94
2023-01-18T10:30:04.130Z,943.94
2023-01-18T10:31:04.073Z,943.97
2023-01-18T10:32:03.992Z,944.01
2023-01-18T10:33:03.937Z,944.01
2023-01-18T10:34:03.877Z,944.03
2023-01-18T10:35:03.826Z,944.06
2023-01-18T10:36:03.774Z,944.04
2023-01-18T10:37:03.707Z,944.08
2023-01-18T10:38:03.669Z,944.06
2023-01-18T10:39:03.586Z,944.07
2023-01-18T10:40:03.524Z,944.05
2023-01-18T10:41:03.465Z,944.10
2023-01-18T10:42:06.057Z,944.10
2023-01-18T10:43:03.336Z,944.09
2023-01-18T10:44:03.269Z,944.10
2023-01-18T10:45:03.257Z,944.12
2023-01-18T10:46:03.203Z,944.13
2023-01-18T10:47:03.105Z,944.15
2023-01-18T10:48:03.071Z,944.18
2023-01-18T10:49:02.981Z,944.20
2023-01-18T10:50:02.907Z,944.19
2023-01-18T10:51:02.873Z,944.18
2023-01-18T10:52:02.795Z,944.20
2023-01-18T10:53:02.746Z,944.24
2023-01-18T10:54:02.677Z,944.27
2023-01-18T10:55:02.634Z,944.31
2023-01-18T10:56:02.572Z,944.32
2023-01-18T10:57:02.504Z,944.34
2023-01-18T10:58:02.430Z,944.38
2023-01-18T10:59:02.371Z,944.40
2023-01-18T11:00:02.329Z,944.42
2023-01-18T11:01:02.391Z,944.56
2023-01-18T11:02:02.448Z,944.58
2023-01-18T11:03:02.505Z,944.51
2023-01-18T11:04:02.099Z,944.45
2023-01-18T11:05:02.035Z,944.45
2023-01-18T11:06:02.001Z,944.43
2023-01-18T11:07:01.932Z,944.46
2023-01-18T11:08:02.739Z,944.45
2023-01-18T11:09:01.788Z,944.46
2023-01-18T11:10:01.756Z,944.46
2023-01-18T11:11:01.684Z,944.45
2023-01-18T11:12:01.572Z,944.44
2023-01-18T11:13:01.748Z,944.48
2023-01-18T11:14:01.470Z,944.48
2023-01-18T11:15:01.450Z,944.51
2023-01-18T11:16:01.388Z,944.51
2023-01-18T11:17:01.316Z,944.54
2023-01-18T11:18:01.260Z,944.55
2023-01-18T11:19:01.196Z,944.53
2023-01-18T11:20:01.131Z,944.56
2023-01-18T11:21:01.053Z,944.54
2023-01-18T11:22:01.070Z,944.56
2023-01-18T11:23:01.356Z,944.54
2023-01-18T11:24:00.991Z,944.54
2023-01-18T11:25:00.862Z,944.52
2023-01-18T11:26:00.815Z,944.54
2023-01-18T11:27:00.739Z,944.55
2023-01-18T11:28:00.977Z,944.60
2023-01-18T11:29:00.628Z,944.58
2023-01-18T11:30:00.590Z,944.57
2023-01-18T11:31:00.468Z,944.61
2023-01-18T11:32:00.504Z,944.60
2023-01-18T11:33:00.803Z,944.62
2023-01-18T11:34:00.339Z,944.65
2023-01-18T11:35:00.316Z,944.65
2023-01-18T11:36:00.186Z,944.64
2023-01-18T11:37:00.132Z,944.68
2023-01-18T11:38:00.658Z,944.66
2023-01-18T11:39:00.024Z,944.67
2023-01-18T11:39:59.983Z,944.71
2023-01-18T11:40:59.951Z,944.75
2023-01-18T11:41:59.843Z,944.71
2023-01-18T11:42:59.824Z,944.74
2023-01-18T11:43:59.736Z,944.81
2023-01-18T11:44:59.697Z,944.81
2023-01-18T11:45:59.689Z,944.81
2023-01-18T11:46:59.597Z,944.80
2023-01-18T11:47:59.865Z,944.79
2023-01-18T11:48:59.430Z,944.80
2023-01-18T11:50:00.087Z,944.80
2023-01-18T11:50:59.327Z,944.80
2023-01-18T11:51:59.251Z,944.81
2023-01-18T11:52:59.216Z,944.82
2023-01-18T11:53:59.185Z,944.80
2023-01-18T11:54:59.073Z,944.86
2023-01-18T11:55:59.012Z,944.84
2023-01-18T11:56:58.956Z,944.86
2023-01-18T11:57:59.318Z,944.88
2023-01-18T11:58:58.858Z,944.86
2023-01-18T11:59:58.786Z,944.90
2023-01-18T12:00:58.783Z,944.91
2023-01-18T12:01:58.696Z,944.90
2023-01-18T12:02:58.925Z,944.89
2023-01-18T12:03:58.542Z,944.90
2023-01-18T12:04:58.500Z,944.87
2023-01-18T12:05:58.435Z,944.89
2023-01-18T12:06:58.354Z,944.89
2023-01-18T12:07:58.716Z,944.89
2023-01-18T12:08:58.268Z,944.94
2023-01-18T12:09:58.203Z,944.92
2023-01-18T12:10:58.231Z,944.94
2023-01-18T12:12:06.512Z,944.91
2023-01-18T12:12:58.015Z,944.96
2023-01-18T12:13:57.998Z,944.99
2023-01-18T12:14:57.930Z,944.94
2023-01-18T12:15:57.843Z,945.00
2023-01-18T12:16:57.805Z,945.01
2023-01-18T12:18:12.044Z,945.02
2023-01-18T12:18:57.678Z,945.03
2023-01-18T12:19:57.632Z,945.03
2023-01-18T12:20:57.560Z,945.04
2023-01-18T12:21:57.492Z,945.07
2023-01-18T12:22:57.427Z,945.05
2023-01-18T12:23:57.394Z,945.04
2023-01-18T12:24:57.348Z,945.09
2023-01-18T12:26:11.052Z,945.11
2023-01-18T12:26:57.225Z,945.15
2023-01-18T12:27:57.429Z,945.13